KMXF/MXF METAR and TAF weather

Enter ICAO airport designator
Station Type Date Time Source
KMXF METAR 2019/08/17 10:56 UTC NOAA

KMXF 171056Z AUTO 35003KT 10SM CLR 21/19 A2993 RMK AO2 SLP136 T02070190


Station Type Date Time Source
KMXF Decoded METAR 2019/08/17 10:56 UTC NOAA

Station name not available
Aug 17, 2019 - 06:56 AM EDT / 2019.08.17 1056 UTC
Wind: from the N (350 degrees) at 3 MPH (3 KT):0
Visibility: 10 mile(s):0
Sky conditions: clear
Temperature: 69.3 F (20.7 C)
Dew Point: 66.2 F (19.0 C)
Relative Humidity: 89%
Pressure (altimeter): 29.93 in. Hg (1013 hPa)
ob: KMXF 171056Z AUTO 35003KT 10SM CLR 21/19 A2993 RMK AO2 SLP136 T02070190
cycle: 11

Station Type Date Time Source
KMXF TAF 2019/08/17 11:03 UTC NOAA

TAF KMXF 171100Z 1711/1817 VRB06KT 9999 SKC QNH2986INS TX37/1719Z TN21/1712Z

Example: see airport list